Strona główna
METAR-TAF:

METAR-TAF

Lotnisko :

Port lotniczy Tennant Creek

Tennant Creek, Australia

Szerokość geograficzna: 19-38-04S, Długość geograficzna: 134-11-00E, wysokość: 377 m

Aktualna obserwacja pogody

Raport powstał 23 minut temu, godzina 04:03 UTC
Wiatr 15 kt od wschód w porywach dochodzący do 29 kt
Temperatura 41°C
Wilgotność 11%
Ciśnienie 1009 hPa
Widzialność 10 km lub więcej

METAR: YTNK 110403Z AUTO 08015G29KT 9999 // NCD 41/05 Q1009

czas: 13:56 (04:26 UTC)

Prognoza

Raport powstał 3 godziny i 33 minut temu, godzina 00:53 UTC
Prognoza ważna od 11 godzina 02 UTC do 11 godzina 14 UTC
Wiatr 14 kt od wschód
Widzialność 10 km lub więcej
Brak chmur poniżej 1500 m i brak chmur cumulonimbus

TAF: YTNK 110053Z 1102/1114 08014KT CAVOK

Obserwacja i prognoza pogody dla ponad 4000 lotnisk (raport METAR i TAF).

Dostępne stacje oznaczono żółtymi i czerwonymi punktami na mapie.

Najedź kursorem aby zobaczyć nazwę stacji.

Kliknij aby zobaczyć obserwacje i prognozy pogody.

Aby zmienić mapę: kliknij na zielony przycisk z czarnym krzyżykiem, aby powiększyć; na zielony przycisk z myślnikiem, aby pomniejszyć; na zielone strzałki, aby przejść do map sąsiednich.


METAR-TAF: